createdAt,value
2023-05-24T00:01:06.535Z,100124.87
2023-05-24T00:10:40.403Z,100123.59
2023-05-24T00:20:15.776Z,100117.49
2023-05-24T00:29:49.309Z,100111.25
2023-05-24T00:39:23.114Z,100108.73
2023-05-24T00:48:56.731Z,100124.28
2023-05-24T00:58:28.600Z,100126.38
2023-05-24T01:08:02.623Z,100126.72
2023-05-24T01:17:38.264Z,100129.23
2023-05-24T01:27:12.086Z,100132.96
2023-05-24T01:36:44.401Z,100124.08
2023-05-24T01:46:19.820Z,100119.34
2023-05-24T01:55:53.597Z,100117.58
2023-05-24T02:05:26.019Z,100131.17
2023-05-24T02:15:01.502Z,100128.64
2023-05-24T02:24:33.428Z,100129.17
2023-05-24T02:34:09.337Z,100138.20
2023-05-24T02:43:42.634Z,100142.41
2023-05-24T02:53:16.449Z,100130.97
2023-05-24T03:02:48.284Z,100128.13
2023-05-24T03:12:22.045Z,100132.98
2023-05-24T03:21:55.734Z,100122.95
2023-05-24T03:31:31.080Z,100129.77
2023-05-24T03:41:02.975Z,100129.65
2023-05-24T03:50:36.979Z,100131.66
2023-05-24T04:00:11.021Z,100143.11
2023-05-24T04:09:44.587Z,100146.75
2023-05-24T04:19:17.912Z,100147.89
2023-05-24T04:28:53.047Z,100148.39
2023-05-24T04:38:25.271Z,100151.34
2023-05-24T04:48:00.412Z,100155.14
2023-05-24T04:57:32.532Z,100164.98
2023-05-24T05:07:07.991Z,100171.70
2023-05-24T05:16:41.871Z,100184.70
2023-05-24T05:26:15.844Z,100188.17
2023-05-24T05:35:48.055Z,100180.66
2023-05-24T05:36:50.517Z,100178.62
2023-05-24T05:46:24.057Z,100174.87
2023-05-24T05:47:28.163Z,100185.44
2023-05-24T05:48:30.477Z,100181.38
2023-05-24T05:49:32.866Z,100189.52
2023-05-24T05:50:35.428Z,100193.86
2023-05-24T05:51:37.772Z,100192.44
2023-05-24T06:01:11.875Z,100209.30
2023-05-24T06:02:14.040Z,100211.70
2023-05-24T06:03:16.461Z,100214.75
2023-05-24T06:04:18.831Z,100216.81
2023-05-24T06:05:22.851Z,100207.17
2023-05-24T06:06:25.103Z,100211.75
2023-05-24T06:07:29.121Z,100208.77
2023-05-24T06:08:33.029Z,100209.38
2023-05-24T06:09:35.278Z,100211.45
2023-05-24T06:10:37.734Z,100209.50
2023-05-24T06:11:39.917Z,100212.03
2023-05-24T06:21:12.292Z,100215.48
2023-05-24T06:22:14.785Z,100214.67
2023-05-24T06:23:19.301Z,100220.63
2023-05-24T06:24:21.641Z,100220.48
2023-05-24T06:25:24.073Z,100216.29
2023-05-24T06:26:28.053Z,100212.20
2023-05-24T06:27:30.331Z,100210.81
2023-05-24T06:28:34.345Z,100211.42
2023-05-24T06:29:36.718Z,100216.59
2023-05-24T06:30:39.089Z,100217.75
2023-05-24T06:31:41.549Z,100219.65
2023-05-24T06:32:43.927Z,100223.20
2023-05-24T06:33:49.503Z,100222.80
2023-05-24T06:34:48.661Z,100223.09
2023-05-24T06:35:52.665Z,100226.64
2023-05-24T06:36:55.003Z,100229.87
2023-05-24T06:37:57.418Z,100226.58
2023-05-24T06:39:01.464Z,100227.72
2023-05-24T06:40:03.786Z,100236.66
2023-05-24T06:41:07.788Z,100235.17
2023-05-24T06:50:42.402Z,100233.86
2023-05-24T06:51:42.212Z,100236.56
2023-05-24T06:52:46.291Z,100230.54
2023-05-24T06:53:48.649Z,100231.76
2023-05-24T06:54:51.121Z,100228.81
2023-05-24T06:55:54.947Z,100227.61
2023-05-24T06:56:56.061Z,100225.39
2023-05-24T06:57:58.462Z,100234.52
2023-05-24T06:59:00.872Z,100228.67
2023-05-24T07:00:03.289Z,100232.50
2023-05-24T07:01:05.692Z,100229.14
2023-05-24T07:02:08.045Z,100225.34
2023-05-24T07:03:12.104Z,100223.45
2023-05-24T07:04:14.322Z,100232.02
2023-05-24T07:05:16.752Z,100226.48
2023-05-24T07:06:20.851Z,100229.44
2023-05-24T07:07:23.124Z,100224.22
2023-05-24T07:08:25.572Z,100223.66
2023-05-24T07:09:29.607Z,100225.70
2023-05-24T07:10:31.899Z,100222.42
2023-05-24T07:11:35.989Z,100217.03
2023-05-24T07:12:39.897Z,100224.30
2023-05-24T07:13:42.135Z,100224.95
2023-05-24T07:14:44.526Z,100225.14
2023-05-24T07:15:47.022Z,100228.55
2023-05-24T07:16:49.452Z,100215.11
2023-05-24T07:17:51.888Z,100216.19
2023-05-24T07:18:54.300Z,100223.88
2023-05-24T07:19:56.772Z,100218.23
2023-05-24T07:20:59.173Z,100223.32
2023-05-24T07:22:01.556Z,100226.86
2023-05-24T07:23:03.995Z,100223.06
2023-05-24T07:24:08.064Z,100224.85
2023-05-24T07:25:11.893Z,100221.01
2023-05-24T07:26:15.838Z,100226.00
2023-05-24T07:27:18.156Z,100216.25
2023-05-24T07:28:20.597Z,100213.80
2023-05-24T07:29:24.605Z,100211.03
2023-05-24T07:30:46.409Z,100216.08
2023-05-24T07:31:32.411Z,100215.60
2023-05-24T07:32:34.870Z,100217.61
2023-05-24T07:33:37.211Z,100219.05
2023-05-24T07:34:41.196Z,100217.57
2023-05-24T07:35:43.472Z,100220.18
2023-05-24T07:36:47.508Z,100221.34
2023-05-24T07:37:51.384Z,100207.73
2023-05-24T07:38:53.673Z,100216.38
2023-05-24T07:39:56.137Z,100216.72
2023-05-24T07:41:00.160Z,100214.10
2023-05-24T07:42:02.459Z,100217.56
2023-05-24T07:43:04.962Z,100212.92
2023-05-24T07:44:08.962Z,100216.31
2023-05-24T07:45:11.242Z,100217.61
2023-05-24T07:46:13.711Z,100214.13
2023-05-24T07:47:17.182Z,100215.78
2023-05-24T07:48:19.533Z,100212.61
2023-05-24T07:49:22.020Z,100211.24
2023-05-24T07:50:24.400Z,100214.84
2023-05-24T07:51:26.815Z,100218.85
2023-05-24T07:52:29.225Z,100223.41
2023-05-24T07:53:33.242Z,100217.16
2023-05-24T07:54:37.116Z,100219.06
2023-05-24T07:55:41.271Z,100225.70
2023-05-24T07:56:43.260Z,100218.08
2023-05-24T07:57:45.698Z,100218.97
2023-05-24T07:58:48.151Z,100226.03
2023-05-24T07:59:50.602Z,100232.28
2023-05-24T08:00:53.292Z,100233.36
2023-05-24T08:01:55.625Z,100235.82
2023-05-24T08:02:58.156Z,100237.38
2023-05-24T08:04:00.717Z,100237.67
2023-05-24T08:05:03.008Z,100236.83
2023-05-24T08:06:07.064Z,100240.48
2023-05-24T08:07:11.186Z,100247.07
2023-05-24T08:08:13.385Z,100235.98
2023-05-24T08:09:15.774Z,100241.95
2023-05-24T08:10:18.260Z,100241.37
2023-05-24T08:11:20.704Z,100240.10
2023-05-24T08:12:24.727Z,100245.33
2023-05-24T08:13:27.153Z,100234.55
2023-05-24T08:14:31.083Z,100241.84
2023-05-24T08:24:02.169Z,100243.38
2023-05-24T08:25:04.645Z,100244.69
2023-05-24T08:26:07.048Z,100246.44
2023-05-24T08:27:09.551Z,100243.33
2023-05-24T08:28:11.998Z,100245.20
2023-05-24T08:29:14.472Z,100241.30
2023-05-24T08:30:18.488Z,100238.05
2023-05-24T08:31:20.860Z,100244.50
2023-05-24T08:32:23.323Z,100239.36
2023-05-24T08:33:25.798Z,100235.77
2023-05-24T08:34:28.161Z,100228.52
2023-05-24T08:35:30.603Z,100229.75
2023-05-24T08:36:33.111Z,100233.30
2023-05-24T08:37:35.497Z,100228.09
2023-05-24T08:38:37.910Z,100221.33
2023-05-24T08:39:40.315Z,100220.63
2023-05-24T08:49:13.489Z,100232.33
2023-05-24T08:50:15.978Z,100228.34
2023-05-24T08:51:18.469Z,100227.86
2023-05-24T08:52:22.567Z,100230.41
2023-05-24T08:53:24.921Z,100219.61
2023-05-24T08:54:27.343Z,100228.11
2023-05-24T08:55:31.710Z,100226.04
2023-05-24T08:56:32.305Z,100231.31
2023-05-24T08:57:34.866Z,100222.73
2023-05-24T08:58:37.143Z,100221.09
2023-05-24T08:59:45.230Z,100230.22
2023-05-24T09:00:47.335Z,100222.25
2023-05-24T09:01:49.910Z,100219.78
2023-05-24T09:02:52.285Z,100220.70
2023-05-24T09:03:56.305Z,100229.92
2023-05-24T09:05:00.248Z,100225.61
2023-05-24T09:06:02.570Z,100230.70
2023-05-24T09:07:05.009Z,100227.66
2023-05-24T09:08:08.284Z,100227.66
2023-05-24T09:09:12.257Z,100229.77
2023-05-24T09:10:14.589Z,100220.84
2023-05-24T09:11:18.680Z,100226.94
2023-05-24T09:12:32.931Z,100228.02
2023-05-24T09:13:23.455Z,100225.59
2023-05-24T09:14:25.926Z,100230.28
2023-05-24T09:15:28.364Z,100231.09
2023-05-24T09:16:30.883Z,100229.98
2023-05-24T09:17:33.853Z,100235.02
2023-05-24T09:18:35.787Z,100236.96
2023-05-24T09:19:38.230Z,100232.95
2023-05-24T09:20:40.790Z,100232.41
2023-05-24T09:21:43.101Z,100229.47
2023-05-24T09:22:45.500Z,100235.33
2023-05-24T09:23:48.033Z,100234.91
2023-05-24T09:24:50.505Z,100228.73
2023-05-24T09:25:52.957Z,100232.09
2023-05-24T09:26:55.408Z,100233.27
2023-05-24T09:27:57.912Z,100229.27
2023-05-24T09:29:00.338Z,100231.40
2023-05-24T09:30:02.843Z,100238.14
2023-05-24T09:31:08.001Z,100234.52
2023-05-24T09:32:10.738Z,100237.08
2023-05-24T09:33:13.115Z,100235.16
2023-05-24T09:34:15.522Z,100241.28
2023-05-24T09:35:19.614Z,100240.88
2023-05-24T09:36:23.622Z,100240.50
2023-05-24T09:37:29.877Z,100246.91
2023-05-24T09:38:28.319Z,100241.64
2023-05-24T09:39:30.791Z,100246.58
2023-05-24T09:40:34.794Z,100244.73
2023-05-24T09:41:38.701Z,100248.14
2023-05-24T09:42:42.638Z,100246.59
2023-05-24T09:43:44.942Z,100244.41
2023-05-24T09:44:48.944Z,100245.69
2023-05-24T09:45:51.362Z,100239.48
2023-05-24T09:46:55.382Z,100239.02
2023-05-24T09:47:59.354Z,100242.83
2023-05-24T09:49:01.582Z,100245.95
2023-05-24T09:50:05.675Z,100238.17
2023-05-24T09:51:07.956Z,100240.16
2023-05-24T09:52:10.440Z,100244.03
2023-05-24T09:53:12.788Z,100242.52
2023-05-24T09:54:15.188Z,100239.28
2023-05-24T09:55:19.314Z,100242.98
2023-05-24T09:56:21.931Z,100237.31
2023-05-24T09:57:24.296Z,100236.50
2023-05-24T09:58:28.380Z,100233.77
2023-05-24T09:59:32.258Z,100228.59
2023-05-24T10:00:34.556Z,100233.41
2023-05-24T10:01:36.987Z,100228.98
2023-05-24T10:02:45.354Z,100227.77
2023-05-24T10:03:41.824Z,100225.84
2023-05-24T10:04:44.234Z,100224.60
2023-05-24T10:05:48.292Z,100228.58
2023-05-24T10:06:50.642Z,100219.47
2023-05-24T10:07:54.992Z,100215.14
2023-05-24T10:08:58.624Z,100215.34
2023-05-24T10:10:01.126Z,100213.56
2023-05-24T10:11:03.497Z,100209.73
2023-05-24T10:12:05.959Z,100209.19
2023-05-24T10:13:08.471Z,100208.80
2023-05-24T10:14:11.037Z,100211.72
2023-05-24T10:15:15.012Z,100215.72
2023-05-24T10:16:17.451Z,100206.16
2023-05-24T10:17:19.838Z,100208.03
2023-05-24T10:18:22.401Z,100203.05
2023-05-24T10:19:24.805Z,100203.88
2023-05-24T10:20:28.927Z,100203.96
2023-05-24T10:21:32.943Z,100206.92
2023-05-24T10:22:35.158Z,100201.14
2023-05-24T10:23:37.602Z,100201.88
2023-05-24T10:24:40.104Z,100205.59
2023-05-24T10:25:42.499Z,100207.03
2023-05-24T10:26:48.571Z,100201.37
2023-05-24T10:27:50.840Z,100206.16
2023-05-24T10:28:53.289Z,100205.70
2023-05-24T10:29:55.683Z,100211.14
2023-05-24T10:30:58.166Z,100210.45
2023-05-24T10:32:02.255Z,100211.57
2023-05-24T10:33:04.730Z,100209.59
2023-05-24T10:34:09.105Z,100211.06
2023-05-24T10:35:12.718Z,100215.94
2023-05-24T10:36:15.010Z,100213.03
2023-05-24T10:37:17.418Z,100211.02
2023-05-24T10:38:21.447Z,100212.16
2023-05-24T10:39:23.888Z,100203.86
2023-05-24T10:40:28.002Z,100207.83
2023-05-24T10:41:30.327Z,100204.86
2023-05-24T10:42:32.703Z,100207.05
2023-05-24T10:43:35.241Z,100199.09
2023-05-24T10:44:37.678Z,100194.10
2023-05-24T10:45:40.095Z,100193.33
2023-05-24T10:46:42.700Z,100194.84
2023-05-24T10:47:45.107Z,100195.06
2023-05-24T10:48:47.524Z,100198.19
2023-05-24T10:49:49.983Z,100197.59
2023-05-24T10:50:54.024Z,100208.08
2023-05-24T10:51:58.023Z,100202.84
2023-05-24T10:53:01.962Z,100205.38
2023-05-24T10:54:05.040Z,100194.49
2023-05-24T10:55:08.425Z,100196.41
2023-05-24T10:56:10.628Z,100196.16
2023-05-24T10:57:14.696Z,100191.77
2023-05-24T10:58:17.020Z,100197.52
2023-05-24T10:59:19.492Z,100193.03
2023-05-24T11:00:33.648Z,100187.11
2023-05-24T11:01:24.410Z,100188.14
2023-05-24T11:02:28.824Z,100185.69
2023-05-24T11:03:31.165Z,100187.52
2023-05-24T11:04:33.711Z,100175.77
2023-05-24T11:05:36.205Z,100178.87
2023-05-24T11:06:38.688Z,100176.64
2023-05-24T11:07:41.125Z,100179.27
2023-05-24T11:08:43.526Z,100184.82
2023-05-24T11:09:47.557Z,100184.55
2023-05-24T11:10:51.504Z,100180.19
2023-05-24T11:11:55.448Z,100180.50
2023-05-24T11:12:59.346Z,100174.70
2023-05-24T11:14:01.647Z,100172.53
2023-05-24T11:15:05.683Z,100180.17
2023-05-24T11:16:08.107Z,100186.26
2023-05-24T11:17:10.549Z,100186.20
2023-05-24T11:18:13.056Z,100178.11
2023-05-24T11:19:15.466Z,100185.50
2023-05-24T11:20:17.939Z,100187.58
2023-05-24T11:21:22.021Z,100194.72
2023-05-24T11:22:25.996Z,100191.00
2023-05-24T11:23:28.287Z,100186.88
2023-05-24T11:24:30.790Z,100175.84
2023-05-24T11:25:33.254Z,100178.94
2023-05-24T11:26:35.728Z,100174.89
2023-05-24T11:27:38.192Z,100167.28
2023-05-24T11:28:42.333Z,100173.61
2023-05-24T11:29:44.589Z,100167.25
2023-05-24T11:30:47.108Z,100164.44
2023-05-24T11:31:51.155Z,100167.30
2023-05-24T11:32:53.579Z,100169.89
2023-05-24T11:42:27.025Z,100167.80
2023-05-24T11:43:29.602Z,100169.44
2023-05-24T11:44:32.133Z,100170.22
2023-05-24T11:45:34.604Z,100173.20
2023-05-24T11:46:37.108Z,100167.80
2023-05-24T11:47:39.565Z,100165.84
2023-05-24T11:48:42.289Z,100168.41
2023-05-24T11:49:44.549Z,100167.36
2023-05-24T11:50:49.640Z,100162.95
2023-05-24T11:51:49.439Z,100161.28
2023-05-24T11:52:51.944Z,100171.15
2023-05-24T11:53:56.037Z,100169.03
2023-05-24T11:54:58.367Z,100163.25
2023-05-24T11:56:00.824Z,100166.98
2023-05-24T11:57:03.289Z,100164.11
2023-05-24T11:58:05.738Z,100158.55
2023-05-24T11:59:09.833Z,100162.09
2023-05-24T12:00:12.191Z,100161.67
2023-05-24T12:01:14.593Z,100159.35
2023-05-24T12:02:17.122Z,100161.50
2023-05-24T12:03:19.689Z,100159.41
2023-05-24T12:04:22.092Z,100163.13
2023-05-24T12:05:26.134Z,100165.81
2023-05-24T12:06:30.127Z,100154.42
2023-05-24T12:07:32.398Z,100158.64
2023-05-24T12:08:34.882Z,100152.30
2023-05-24T12:09:37.409Z,100151.44
2023-05-24T12:10:39.829Z,100153.43
2023-05-24T12:11:42.480Z,100151.42
2023-05-24T12:12:46.124Z,100141.42
2023-05-24T12:13:48.737Z,100147.25
2023-05-24T12:14:51.086Z,100147.78
2023-05-24T12:15:56.128Z,100142.06
2023-05-24T12:16:56.155Z,100147.27
2023-05-24T12:18:00.326Z,100148.74
2023-05-24T12:19:07.367Z,100146.27
2023-05-24T12:20:05.319Z,100150.41
2023-05-24T12:21:07.638Z,100148.28
2023-05-24T12:22:10.179Z,100150.98
2023-05-24T12:23:14.265Z,100153.17
2023-05-24T12:24:16.643Z,100149.41
2023-05-24T12:25:19.051Z,100151.00
2023-05-24T12:26:21.486Z,100151.67
2023-05-24T12:27:23.917Z,100149.56
2023-05-24T12:28:26.393Z,100156.29
2023-05-24T12:29:30.539Z,100156.13
2023-05-24T12:30:34.468Z,100152.11
2023-05-24T12:31:36.873Z,100152.47
2023-05-24T12:32:39.388Z,100153.16
2023-05-24T12:33:41.848Z,100150.97
2023-05-24T12:34:44.457Z,100152.63
2023-05-24T12:35:46.812Z,100148.80
2023-05-24T12:36:49.295Z,100154.77
2023-05-24T12:37:53.526Z,100162.84
2023-05-24T12:38:55.846Z,100160.55
2023-05-24T12:40:00.014Z,100159.19
2023-05-24T12:41:12.738Z,100157.70
2023-05-24T12:42:06.337Z,100159.58
2023-05-24T12:43:10.345Z,100161.23
2023-05-24T12:44:12.698Z,100156.47
2023-05-24T12:45:15.194Z,100159.53
2023-05-24T12:46:19.305Z,100157.02
2023-05-24T12:47:21.678Z,100160.31
2023-05-24T12:48:24.004Z,100155.16
2023-05-24T12:49:28.066Z,100159.11
2023-05-24T12:50:30.377Z,100157.97
2023-05-24T12:51:34.441Z,100154.30
2023-05-24T12:52:36.787Z,100156.34
2023-05-24T12:53:40.852Z,100154.16
2023-05-24T12:54:44.818Z,100157.66
2023-05-24T12:55:48.806Z,100155.19
2023-05-24T12:56:55.029Z,100150.94
2023-05-24T12:57:55.101Z,100149.34
2023-05-24T12:58:57.568Z,100146.74
2023-05-24T13:00:00.056Z,100143.86
2023-05-24T13:01:02.542Z,100141.09
2023-05-24T13:02:06.638Z,100148.84
2023-05-24T13:03:08.969Z,100145.75
2023-05-24T13:04:11.505Z,100144.66
2023-05-24T13:05:15.560Z,100144.52
2023-05-24T13:06:17.961Z,100142.69
2023-05-24T13:07:20.404Z,100143.38
2023-05-24T13:08:24.494Z,100145.48
2023-05-24T13:09:26.869Z,100140.50
2023-05-24T13:10:29.296Z,100144.05
2023-05-24T13:11:31.792Z,100138.38
2023-05-24T13:12:34.268Z,100145.90
2023-05-24T13:13:36.811Z,100135.83
2023-05-24T13:14:39.253Z,100134.08
2023-05-24T13:15:41.802Z,100136.58
2023-05-24T13:16:44.559Z,100142.47
2023-05-24T13:17:48.317Z,100138.13
2023-05-24T13:18:50.736Z,100140.69
2023-05-24T13:19:53.293Z,100139.41
2023-05-24T13:20:57.301Z,100140.27
2023-05-24T13:22:01.234Z,100142.59
2023-05-24T13:23:03.595Z,100138.12
2023-05-24T13:24:06.027Z,100141.41
2023-05-24T13:25:08.514Z,100136.69
2023-05-24T13:26:11.040Z,100135.60
2023-05-24T13:27:15.177Z,100137.73
2023-05-24T13:28:19.150Z,100136.94
2023-05-24T13:29:34.741Z,100138.96
2023-05-24T13:30:24.057Z,100135.50
2023-05-24T13:31:26.548Z,100141.59
2023-05-24T13:32:29.013Z,100139.00
2023-05-24T13:33:34.650Z,100143.28
2023-05-24T13:34:34.009Z,100135.38
2023-05-24T13:35:38.122Z,100129.97
2023-05-24T13:36:40.426Z,100130.97
2023-05-24T13:37:42.912Z,100134.50
2023-05-24T13:38:46.984Z,100137.73
2023-05-24T13:39:50.985Z,100131.48
2023-05-24T13:40:54.953Z,100133.22
2023-05-24T13:41:58.989Z,100134.94
2023-05-24T13:43:02.837Z,100131.41
2023-05-24T13:44:06.761Z,100139.93
2023-05-24T13:45:09.135Z,100135.26
2023-05-24T13:46:13.310Z,100137.30
2023-05-24T13:47:20.949Z,100129.16
2023-05-24T13:48:18.106Z,100131.84
2023-05-24T13:49:22.137Z,100132.16
2023-05-24T13:50:24.542Z,100129.83
2023-05-24T13:51:27.124Z,100135.26
2023-05-24T13:52:29.545Z,100139.92
2023-05-24T13:53:32.085Z,100139.08
2023-05-24T13:54:34.546Z,100137.19
2023-05-24T13:55:38.630Z,100146.27
2023-05-24T13:56:40.949Z,100140.18
2023-05-24T13:57:51.526Z,100138.81
2023-05-24T13:58:45.933Z,100141.03
2023-05-24T13:59:48.433Z,100137.28
2023-05-24T14:00:50.892Z,100146.42
2023-05-24T14:01:53.419Z,100138.05
2023-05-24T14:02:57.503Z,100146.27
2023-05-24T14:03:59.869Z,100148.63
2023-05-24T14:05:13.864Z,100150.83
2023-05-24T14:06:04.870Z,100147.77
2023-05-24T14:07:08.847Z,100147.33
2023-05-24T14:08:12.907Z,100143.82
2023-05-24T14:09:15.191Z,100147.61
2023-05-24T14:10:21.412Z,100154.88
2023-05-24T14:11:21.706Z,100146.28
2023-05-24T14:12:24.232Z,100145.61
2023-05-24T14:15:33.314Z,100150.70
2023-05-24T14:16:35.847Z,100148.03
2023-05-24T14:17:38.326Z,100150.90
2023-05-24T14:18:42.444Z,100141.05
2023-05-24T14:19:44.894Z,100143.86
2023-05-24T14:20:49.007Z,100147.13
2023-05-24T14:21:52.926Z,100146.88
2023-05-24T14:22:58.476Z,100147.55
2023-05-24T14:24:00.960Z,100145.13
2023-05-24T14:25:04.957Z,100145.30
2023-05-24T14:26:07.290Z,100147.50
2023-05-24T14:27:09.733Z,100136.34
2023-05-24T14:28:12.330Z,100134.08
2023-05-24T14:29:14.964Z,100127.88
2023-05-24T14:30:17.316Z,100136.02
2023-05-24T14:31:19.885Z,100134.52
2023-05-24T14:32:22.347Z,100127.57
2023-05-24T14:33:26.697Z,100134.91
2023-05-24T14:34:30.591Z,100135.39
2023-05-24T14:35:34.631Z,100135.19
2023-05-24T14:36:36.986Z,100133.45
2023-05-24T14:37:41.066Z,100129.03
2023-05-24T14:38:43.418Z,100127.47
2023-05-24T14:39:46.019Z,100128.87
2023-05-24T14:40:50.094Z,100129.89
2023-05-24T14:41:52.424Z,100133.42
2023-05-24T14:42:54.968Z,100131.83
2023-05-24T14:43:57.462Z,100132.41
2023-05-24T14:45:01.560Z,100133.86
2023-05-24T14:46:05.536Z,100131.98
2023-05-24T14:47:09.484Z,100128.12
2023-05-24T14:48:12.408Z,100127.79
2023-05-24T14:49:14.246Z,100132.20
2023-05-24T14:50:16.765Z,100129.48
2023-05-24T14:51:19.226Z,100124.52
2023-05-24T14:52:21.740Z,100129.55
2023-05-24T14:53:24.271Z,100131.05
2023-05-24T14:54:26.717Z,100138.09
2023-05-24T14:55:29.203Z,100136.30
2023-05-24T14:56:31.677Z,100131.48
2023-05-24T14:57:35.721Z,100141.11
2023-05-24T14:58:38.128Z,100135.06
2023-05-24T14:59:40.636Z,100133.63
2023-05-24T15:00:45.020Z,100138.46
2023-05-24T15:01:48.778Z,100140.26
2023-05-24T15:02:52.766Z,100137.75
2023-05-24T15:03:55.105Z,100133.24
2023-05-24T15:04:59.154Z,100134.70
2023-05-24T15:06:03.201Z,100135.16
2023-05-24T15:07:05.528Z,100134.50
2023-05-24T15:08:09.540Z,100137.34
2023-05-24T15:09:13.445Z,100137.34
2023-05-24T15:10:17.421Z,100132.72
2023-05-24T15:11:19.721Z,100134.48
2023-05-24T15:12:22.178Z,100134.13
2023-05-24T15:13:26.273Z,100132.49
2023-05-24T15:14:28.642Z,100135.95
2023-05-24T15:15:32.754Z,100137.38
2023-05-24T15:16:36.835Z,100135.80
2023-05-24T15:17:39.263Z,100134.86
2023-05-24T15:18:43.233Z,100131.61
2023-05-24T15:19:45.618Z,100136.22
2023-05-24T15:20:48.644Z,100134.59
2023-05-24T15:21:51.282Z,100136.91
2023-05-24T15:22:55.644Z,100133.62
2023-05-24T15:23:59.932Z,100136.69
2023-05-24T15:25:02.492Z,100134.45
2023-05-24T15:26:06.863Z,100138.37
2023-05-24T15:27:11.025Z,100132.31
2023-05-24T15:28:15.424Z,100132.36
2023-05-24T15:29:19.594Z,100134.05
2023-05-24T15:30:23.691Z,100133.16
2023-05-24T15:31:26.305Z,100129.48
2023-05-24T15:32:28.964Z,100130.21
2023-05-24T15:33:31.847Z,100126.91
2023-05-24T15:34:36.524Z,100130.59
2023-05-24T15:35:39.178Z,100123.74
2023-05-24T15:36:43.529Z,100124.56
2023-05-24T15:37:46.323Z,100130.89
2023-05-24T15:38:50.801Z,100124.83
2023-05-24T15:39:53.532Z,100125.13
2023-05-24T15:40:57.796Z,100124.94
2023-05-24T15:42:00.600Z,100124.71
2023-05-24T15:43:03.749Z,100117.34
2023-05-24T15:44:08.073Z,100119.61
2023-05-24T15:45:10.697Z,100120.22
2023-05-24T15:46:13.453Z,100118.18
2023-05-24T15:47:16.241Z,100115.89
2023-05-24T15:48:19.290Z,100116.25
2023-05-24T15:49:23.389Z,100117.01
2023-05-24T15:50:44.053Z,100116.23
2023-05-24T15:51:57.921Z,100114.55
2023-05-24T15:52:32.065Z,100112.25
2023-05-24T15:53:34.540Z,100111.84
2023-05-24T15:54:37.054Z,100112.50
2023-05-24T15:55:39.542Z,100107.38
2023-05-24T15:56:42.021Z,100111.77
2023-05-24T15:57:44.468Z,100115.22
2023-05-24T15:58:48.632Z,100107.59
2023-05-24T15:59:51.110Z,100107.50
2023-05-24T16:00:53.586Z,100104.35
2023-05-24T16:01:57.738Z,100104.22
2023-05-24T16:03:00.224Z,100104.88
2023-05-24T16:04:04.329Z,100108.19
2023-05-24T16:05:06.513Z,100100.89
2023-05-24T16:06:10.617Z,100104.70
2023-05-24T16:07:14.593Z,100105.45
2023-05-24T16:08:16.916Z,100106.61
2023-05-24T16:09:19.452Z,100102.30
2023-05-24T16:10:23.550Z,100109.80
2023-05-24T16:11:25.987Z,100107.36
2023-05-24T16:12:32.976Z,100109.43
2023-05-24T16:13:33.495Z,100105.39
2023-05-24T16:14:35.968Z,100106.52
2023-05-24T16:15:38.482Z,100103.35
2023-05-24T16:16:41.020Z,100101.82
2023-05-24T16:17:43.675Z,100098.83
2023-05-24T16:18:46.157Z,100097.83
2023-05-24T16:19:48.715Z,100094.16
2023-05-24T16:20:51.284Z,100095.59
2023-05-24T16:21:53.771Z,100095.59
2023-05-24T16:22:57.896Z,100096.48
2023-05-24T16:24:02.181Z,100096.53
2023-05-24T16:25:04.261Z,100094.39
2023-05-24T16:26:06.791Z,100093.03
2023-05-24T16:27:10.951Z,100093.39
2023-05-24T16:28:13.388Z,100094.17
2023-05-24T16:29:17.505Z,100096.29
2023-05-24T16:30:21.562Z,100096.05
2023-05-24T16:31:25.645Z,100094.96
2023-05-24T16:32:27.967Z,100091.06
2023-05-24T16:33:32.061Z,100094.20
2023-05-24T16:34:41.648Z,100091.77
2023-05-24T16:35:36.924Z,100091.97
2023-05-24T16:36:39.413Z,100090.55
2023-05-24T16:37:41.975Z,100093.41
2023-05-24T16:38:44.439Z,100085.27
2023-05-24T16:39:46.971Z,100083.02
2023-05-24T16:40:51.034Z,100083.87
2023-05-24T16:41:53.446Z,100087.58
2023-05-24T16:42:55.983Z,100082.56
2023-05-24T16:43:58.478Z,100080.49
2023-05-24T16:45:02.556Z,100080.52
2023-05-24T16:46:04.972Z,100079.61
2023-05-24T16:47:09.131Z,100081.36
2023-05-24T16:48:11.793Z,100077.94
2023-05-24T16:49:14.194Z,100075.72
2023-05-24T16:50:16.676Z,100076.49
2023-05-24T16:51:19.228Z,100077.38
2023-05-24T16:52:23.341Z,100081.70
2023-05-24T16:53:27.391Z,100081.50
2023-05-24T16:54:29.838Z,100082.47
2023-05-24T16:55:33.918Z,100072.69
2023-05-24T16:56:38.116Z,100083.96
2023-05-24T16:57:41.818Z,100084.74
2023-05-24T16:58:44.251Z,100086.19
2023-05-24T16:59:47.746Z,100083.55
2023-05-24T17:00:49.185Z,100084.95
2023-05-24T17:01:51.822Z,100083.70
2023-05-24T17:02:54.310Z,100082.79
2023-05-24T17:03:58.466Z,100089.44
2023-05-24T17:05:00.617Z,100090.42
2023-05-24T17:06:04.618Z,100092.02
2023-05-24T17:07:07.010Z,100088.85
2023-05-24T17:08:09.516Z,100090.63
2023-05-24T17:09:11.991Z,100092.78
2023-05-24T17:10:14.478Z,100095.63
2023-05-24T17:11:16.967Z,100099.31
2023-05-24T17:12:19.513Z,100101.02
2023-05-24T17:13:21.971Z,100101.41
2023-05-24T17:14:26.044Z,100103.90
2023-05-24T17:15:30.029Z,100103.26
2023-05-24T17:16:32.420Z,100103.16
2023-05-24T17:17:34.947Z,100105.31
2023-05-24T17:18:39.100Z,100105.86
2023-05-24T17:19:41.479Z,100105.28
2023-05-24T17:20:44.106Z,100098.63
2023-05-24T17:21:48.073Z,100104.97
2023-05-24T17:22:50.425Z,100102.23
2023-05-24T17:23:53.110Z,100102.50
2023-05-24T17:24:57.190Z,100105.75
2023-05-24T17:25:59.538Z,100104.77
2023-05-24T17:27:01.994Z,100103.41
2023-05-24T17:28:04.447Z,100103.78
2023-05-24T17:29:06.842Z,100089.64
2023-05-24T17:30:09.301Z,100099.14
2023-05-24T17:31:13.393Z,100109.28
2023-05-24T17:32:17.321Z,100111.17
2023-05-24T17:33:19.662Z,100106.50
2023-05-24T17:34:23.755Z,100112.23
2023-05-24T17:35:26.035Z,100108.77
2023-05-24T17:36:30.124Z,100103.00
2023-05-24T17:37:34.012Z,100114.02
2023-05-24T17:38:36.329Z,100108.30
2023-05-24T17:39:38.814Z,100108.30
2023-05-24T17:40:41.455Z,100108.89
2023-05-24T17:41:43.632Z,100109.05
2023-05-24T17:42:46.081Z,100106.34
2023-05-24T17:43:48.541Z,100110.41
2023-05-24T17:44:51.036Z,100110.75
2023-05-24T17:45:53.490Z,100107.33
2023-05-24T17:46:55.852Z,100110.99
2023-05-24T17:47:58.359Z,100112.00
2023-05-24T17:49:00.795Z,100109.28
2023-05-24T17:50:03.282Z,100112.80
2023-05-24T17:51:07.386Z,100115.72
2023-05-24T17:52:11.290Z,100115.64
2023-05-24T17:53:30.189Z,100106.67
2023-05-24T17:54:16.129Z,100109.96
2023-05-24T17:55:20.129Z,100116.14
2023-05-24T17:56:22.426Z,100114.46
2023-05-24T17:57:24.888Z,100112.49
2023-05-24T17:58:27.319Z,100108.59